Time;durP1;ratioP1;P1;durP2;ratioP2;P2;SDS_P1;SDS_P2;PMS_P1;PMS_P2;Temp;Humidity;BMP_temperature;BMP_pressure;BME280_temperature;BME280_humidity;BME280_pressure;Samples;Min_cycle;Max_cycle;Signal;HPM_P1;HPM_P2
2021/08/14 00:01:56;;;;;;;16.95;10.45;;;;;;;17.36;100.00;99723.30;1655204;85;21572;-66
2021/08/14 00:04:24;;;;;;;17.65;10.40;;;;;;;17.34;100.00;99724.25;1645858;85;20973;-67
2021/08/14 00:06:55;;;;;;;17.57;10.55;;;;;;;17.28;100.00;99724.82;1655246;85;21101;-68
2021/08/14 00:09:23;;;;;;;20.62;10.23;;;;;;;17.25;100.00;99724.02;1655541;85;21045;-66
2021/08/14 00:11:53;;;;;;;37.83;11.60;;;;;;;17.20;100.00;99721.47;1655484;85;21556;-69
2021/08/14 00:14:28;;;;;;;59.38;12.95;;;;;;;17.17;100.00;99729.54;1655242;85;21576;-69
2021/08/14 00:16:54;;;;;;;28.40;10.85;;;;;;;17.14;100.00;99720.73;1654517;85;21048;-69
2021/08/14 00:19:23;;;;;;;21.48;10.53;;;;;;;17.10;100.00;99719.05;1655642;85;21674;-70
2021/08/14 00:21:52;;;;;;;20.68;10.18;;;;;;;17.08;100.00;99729.75;1654137;85;21012;-66
2021/08/14 00:24:21;;;;;;;18.95;10.55;;;;;;;17.08;100.00;99732.42;1655461;85;21085;-69
2021/08/14 00:26:51;;;;;;;16.48;9.73;;;;;;;17.09;100.00;99730.62;1655416;85;21086;-63
2021/08/14 00:29:20;;;;;;;21.42;10.32;;;;;;;17.05;100.00;99728.95;1655354;85;21019;-65
2021/08/14 00:31:49;;;;;;;17.23;11.50;;;;;;;17.01;100.00;99726.78;1655188;85;20977;-67
2021/08/14 00:34:19;;;;;;;25.88;13.88;;;;;;;16.97;100.00;99730.42;1655276;85;21132;-67
2021/08/14 00:36:48;;;;;;;22.00;13.18;;;;;;;16.94;100.00;99736.70;1655435;85;21036;-67
2021/08/14 00:39:19;;;;;;;17.60;11.85;;;;;;;16.91;100.00;99730.11;1655309;85;21603;-67
2021/08/14 00:41:50;;;;;;;17.82;11.48;;;;;;;16.88;100.00;99728.84;1646759;85;21040;-66
2021/08/14 00:44:21;;;;;;;21.02;11.93;;;;;;;16.87;100.00;99731.09;1655435;85;21085;-65
2021/08/14 00:46:50;;;;;;;21.75;11.20;;;;;;;16.86;100.00;99728.01;1644817;86;21046;-66
2021/08/14 00:49:19;;;;;;;24.40;10.40;;;;;;;16.88;100.00;99733.30;1655515;85;21021;-66
2021/08/14 00:51:49;;;;;;;28.70;11.00;;;;;;;16.87;100.00;99739.09;1637483;85;21791;-66
2021/08/14 00:54:19;;;;;;;23.50;11.20;;;;;;;16.85;100.00;99732.91;1655281;85;20922;-66
2021/08/14 00:56:48;;;;;;;23.25;10.72;;;;;;;16.85;100.00;99734.70;1655387;85;21539;-66
2021/08/14 00:59:17;;;;;;;17.82;10.00;;;;;;;16.82;100.00;99732.98;1658810;85;21077;-66
2021/08/14 01:01:46;;;;;;;27.48;11.03;;;;;;;16.79;100.00;99742.37;1655186;85;21004;-66
2021/08/14 01:04:14;;;;;;;31.10;10.45;;;;;;;16.76;100.00;99745.11;1642559;85;21107;-66
2021/08/14 01:06:43;;;;;;;24.23;10.48;;;;;;;16.71;100.00;99747.00;1655291;85;20866;-66
2021/08/14 01:09:11;;;;;;;30.43;9.90;;;;;;;16.70;100.00;99745.24;1655699;85;21012;-66
2021/08/14 01:11:41;;;;;;;24.12;10.15;;;;;;;16.68;100.00;99750.59;1655459;85;21430;-66
2021/08/14 01:14:09;;;;;;;18.73;10.32;;;;;;;16.67;100.00;99757.30;1654640;85;20962;-67
2021/08/14 01:16:37;;;;;;;18.40;10.18;;;;;;;16.64;100.00;99756.87;1655017;85;21141;-67
2021/08/14 01:19:05;;;;;;;18.05;9.45;;;;;;;16.61;100.00;99755.60;1646703;85;20998;-66
2021/08/14 01:21:34;;;;;;;16.30;9.98;;;;;;;16.61;100.00;99762.72;1655348;85;20954;-66
2021/08/14 01:24:04;;;;;;;19.98;9.35;;;;;;;16.59;100.00;99759.20;1655257;85;21540;-66
2021/08/14 01:26:33;;;;;;;15.13;9.30;;;;;;;16.54;100.00;99759.73;1655340;85;21053;-66
2021/08/14 01:29:01;;;;;;;15.58;9.75;;;;;;;16.51;100.00;99758.45;1655257;85;21161;-66
2021/08/14 01:31:30;;;;;;;17.57;9.23;;;;;;;16.48;100.00;99758.52;1639934;86;21670;-66
2021/08/14 01:33:59;;;;;;;18.50;9.40;;;;;;;16.46;100.00;99752.34;1655168;85;21010;-65
2021/08/14 01:36:27;;;;;;;16.05;9.40;;;;;;;16.45;100.00;99759.91;1655181;85;20998;-66
2021/08/14 01:39:00;;;;;;;136.28;16.07;;;;;;;16.41;100.00;99759.09;1655282;85;21481;-66
2021/08/14 01:41:28;;;;;;;52.63;11.53;;;;;;;16.38;100.00;99768.03;1655423;85;21242;-66
2021/08/14 01:44:08;;;;;;;41.80;11.43;;;;;;;16.30;100.00;99759.77;1655488;85;21564;-66
2021/08/14 01:46:41;;;;;;;30.37;10.20;;;;;;;16.27;100.00;99758.50;1644513;85;21448;-66
2021/08/14 01:49:09;;;;;;;24.10;10.18;;;;;;;16.27;100.00;99758.50;1655505;85;21501;-66
2021/08/14 01:51:37;;;;;;;19.05;9.20;;;;;;;16.25;100.00;99761.64;1655473;85;20887;-63
2021/08/14 01:54:07;;;;;;;22.60;10.95;;;;;;;16.21;100.00;99758.16;1655582;85;21896;-63
2021/08/14 01:56:35;;;;;;;23.30;13.28;;;;;;;16.20;100.00;99754.20;1655193;85;21050;-64
2021/08/14 01:59:03;;;;;;;25.30;11.57;;;;;;;16.20;100.00;99754.20;1655508;85;21114;-63
2021/08/14 02:01:33;;;;;;;23.67;12.65;;;;;;;16.20;100.00;99755.53;1645694;85;20974;-64
2021/08/14 02:04:02;;;;;;;19.60;11.43;;;;;;;16.16;100.00;99753.84;1655496;85;21017;-63
2021/08/14 02:06:30;;;;;;;26.70;11.18;;;;;;;16.14;100.00;99755.20;1655331;85;21175;-66
2021/08/14 02:08:59;;;;;;;19.67;10.90;;;;;;;16.12;100.00;99755.68;1645507;85;20997;-66
2021/08/14 02:11:34;;;;;;;18.87;9.68;;;;;;;16.12;100.00;99755.68;1655395;85;21556;-66
2021/08/14 02:14:01;;;;;;;;;;;;;;;16.11;100.00;99757.92;1657750;85;21041;-66
2021/08/14 02:16:33;;;;;;;26.87;10.68;;;;;;;16.13;100.00;99765.42;1642924;85;20142;-66
2021/08/14 02:19:02;;;;;;;20.92;10.35;;;;;;;16.09;100.00;99751.74;1655220;85;22022;-66
2021/08/14 02:21:31;;;;;;;24.63;9.53;;;;;;;16.09;100.00;99751.74;1645482;85;21005;-64
2021/08/14 02:23:59;;;;;;;23.40;9.93;;;;;;;16.06;100.00;99751.31;1655504;85;20961;-64
2021/08/14 02:26:30;;;;;;;18.80;8.30;;;;;;;16.04;100.00;99752.25;1655219;85;21043;-64
2021/08/14 02:28:58;;;;;;;19.82;8.60;;;;;;;15.99;100.00;99748.80;1655297;85;21607;-65
2021/08/14 02:31:27;;;;;;;17.73;8.75;;;;;;;15.98;100.00;99751.91;1662216;84;21977;-66
2021/08/14 02:33:55;;;;;;;15.55;8.43;;;;;;;15.96;100.00;99744.41;1668148;84;20944;-65
2021/08/14 02:36:25;;;;;;;22.85;8.65;;;;;;;15.94;100.00;99745.34;1662272;84;20945;-65
2021/08/14 02:38:54;;;;;;;17.77;8.43;;;;;;;15.91;100.00;99742.74;1655283;85;21491;-65
2021/08/14 02:41:22;;;;;;;16.23;8.50;;;;;;;15.88;100.00;99734.82;1655123;85;21054;-65
2021/08/14 02:43:51;;;;;;;14.43;8.28;;;;;;;15.85;100.00;99735.75;1655262;85;21480;-66
2021/08/14 02:46:20;;;;;;;16.23;9.00;;;;;;;15.83;100.00;99742.88;1655032;85;20957;-59
2021/08/14 02:48:49;;;;;;;19.42;8.78;;;;;;;15.82;100.00;99746.91;1655417;85;21515;-65
2021/08/14 02:51:18;;;;;;;12.65;7.78;;;;;;;15.79;100.00;99746.95;1655268;85;21586;-65
2021/08/14 02:53:47;;;;;;;14.47;8.10;;;;;;;15.80;100.00;99745.60;1655328;85;20917;-65
2021/08/14 02:56:17;;;;;;;77.45;12.95;;;;;;;15.81;100.00;99746.02;1655395;85;21924;-65
2021/08/14 02:58:46;;;;;;;249.73;28.47;;;;;;;15.81;100.00;99746.02;1655248;85;21483;-65
2021/08/14 03:01:14;;;;;;;297.88;35.52;;;;;;;15.80;100.00;99742.94;1655429;85;21467;-65
2021/08/14 03:03:44;;;;;;;157.60;24.15;;;;;;;15.81;100.00;99745.14;1655298;85;21496;-65
2021/08/14 03:06:28;;;;;;;166.60;22.35;;;;;;;15.79;100.00;99736.31;1655534;85;21000;-64
2021/08/14 03:08:58;;;;;;;94.42;16.55;;;;;;;15.77;100.00;99741.66;1655270;85;22034;-64
2021/08/14 03:11:27;;;;;;;66.75;12.50;;;;;;;15.74;100.00;99742.59;1655342;85;21560;-65
2021/08/14 03:13:56;;;;;;;59.20;12.07;;;;;;;15.72;100.00;99736.42;1655271;85;21446;-66
2021/08/14 03:16:25;;;;;;;43.13;10.60;;;;;;;15.71;100.00;99739.99;1655278;85;21477;-65
2021/08/14 03:18:55;;;;;;;41.33;11.53;;;;;;;15.72;100.00;99742.20;1655259;85;21465;-66
2021/08/14 04:54:52;;;;;;;13.60;7.92;;;;;;;16.78;100.00;99763.72;1778441;79;23385;-69
2021/08/14 04:57:22;;;;;;;26.50;9.38;;;;;;;16.96;100.00;99766.86;1759421;80;21583;-70
2021/08/14 04:59:50;;;;;;;32.42;10.32;;;;;;;17.12;100.00;99766.09;1752115;81;21059;-70
2021/08/14 05:02:19;;;;;;;14.98;8.63;;;;;;;17.26;100.00;99765.31;1751502;81;21504;-70
2021/08/14 05:04:48;;;;;;;17.95;9.28;;;;;;;17.40;100.00;99765.44;1738626;81;21497;-70
2021/08/14 05:07:18;;;;;;;21.70;7.75;;;;;;;17.52;100.00;99756.72;1768273;80;20868;-70
2021/08/14 05:09:46;;;;;;;16.23;7.95;;;;;;;17.66;100.00;99760.83;1768665;80;20974;-70
2021/08/14 05:12:15;;;;;;;16.65;8.68;;;;;;;17.80;100.00;99762.72;1753589;81;21146;-70
2021/08/14 05:14:44;;;;;;;14.63;8.68;;;;;;;17.96;100.00;99767.20;1728215;83;20903;-70
2021/08/14 05:17:12;;;;;;;15.50;7.78;;;;;;;18.10;100.00;99765.06;1781778;79;20922;-70
2021/08/14 05:19:40;;;;;;;10.72;7.67;;;;;;;18.23;100.00;99771.37;1783408;79;21010;-70
2021/08/14 05:22:09;;;;;;;14.25;7.65;;;;;;;18.36;100.00;99759.01;1784893;79;21560;-70
2021/08/14 05:24:37;;;;;;;12.55;7.37;;;;;;;18.49;100.00;99753.77;1745276;81;21125;-70
2021/08/14 05:27:06;;;;;;;12.98;7.50;;;;;;;18.64;100.00;99756.48;1758595;81;21580;-70
2021/08/14 05:29:34;;;;;;;10.45;7.40;;;;;;;18.80;100.00;99760.45;1758086;81;20939;-71
2021/08/14 05:32:03;;;;;;;10.15;7.08;;;;;;;18.95;100.00;99755.14;1764714;80;21005;-71
2021/08/14 05:34:32;;;;;;;11.57;6.37;;;;;;;19.09;100.00;99759.13;1757038;80;20943;-70
2021/08/14 05:37:02;;;;;;;10.03;6.53;;;;;;;19.24;100.00;99756.90;1761781;80;21165;-70
2021/08/14 05:39:31;;;;;;;12.03;6.83;;;;;;;19.37;100.00;99757.80;1772053;80;20858;-69
2021/08/14 05:42:01;;;;;;;11.45;6.62;;;;;;;19.50;100.00;99751.16;1768816;80;21387;-69
2021/08/14 05:44:31;;;;;;;8.03;6.25;;;;;;;19.64;100.00;99756.08;1771782;81;20950;-71
2021/08/14 05:46:59;;;;;;;8.65;5.80;;;;;;;19.79;100.00;99747.99;1751499;81;20934;-70
2021/08/14 05:49:29;;;;;;;9.45;6.03;;;;;;;19.93;100.00;99747.08;1728614;80;21172;-69
2021/08/14 05:52:04;;;;;;;13.85;6.45;;;;;;;20.07;100.00;99745.26;1758373;80;20933;-70
2021/08/14 05:54:28;;;;;;;11.15;6.78;;;;;;;20.19;100.00;99746.16;1757526;81;20830;-69
2021/08/14 05:56:59;;;;;;;10.23;6.00;;;;;;;20.29;100.00;99742.22;1757221;80;21502;-70
2021/08/14 05:59:29;;;;;;;9.00;6.33;;;;;;;20.39;100.00;99741.02;1763959;80;21449;-65
2021/08/14 06:01:59;;;;;;;10.98;6.50;;;;;;;20.49;100.00;99741.55;1763949;80;21427;-64
2021/08/14 06:04:28;;;;;;;10.43;6.37;;;;;;;20.58;100.00;99742.55;1764055;80;20947;-64
2021/08/14 06:06:56;;;;;;;9.63;6.47;;;;;;;20.67;100.00;99739.98;1761054;80;20941;-65
2021/08/14 06:09:24;;;;;;;11.65;5.60;;;;;;;20.77;100.00;99740.51;1771816;80;20987;-64
2021/08/14 06:11:53;;;;;;;11.45;6.03;;;;;;;20.86;100.00;99739.72;1764112;81;21082;-64
2021/08/14 06:14:22;;;;;;;10.63;5.72;;;;;;;20.95;100.00;99738.02;1751330;81;21431;-64
2021/08/14 06:16:49;;;;;;;10.00;6.20;;;;;;;21.02;100.00;99730.61;1752345;80;20930;-63
2021/08/14 06:19:17;;;;;;;6.78;5.12;;;;;;;21.13;100.00;99732.86;1763909;81;20952;-63
2021/08/14 06:21:45;;;;;;;8.65;5.92;;;;;;;21.24;100.00;99733.34;1751355;81;20998;-63
2021/08/14 06:24:13;;;;;;;10.05;5.92;;;;;;;21.34;100.00;99733.40;1726842;80;21096;-65
2021/08/14 06:26:43;;;;;;;9.15;5.87;;;;;;;21.46;100.00;99723.50;1763274;81;20986;-64
2021/08/14 06:29:11;;;;;;;9.40;5.80;;;;;;;21.58;100.00;99732.38;1750764;81;21387;-64
2021/08/14 06:31:40;;;;;;;9.03;5.95;;;;;;;21.69;100.00;99726.56;1753592;80;20892;-65
